sensor_id;sensor_type;location;lat;lon;timestamp;P1;durP1;ratioP1;P2;durP2;ratioP2
3698;SDS011;75064;50.922;7.094;2024-01-30T00:01:11;3.90;;;1.90;;
3698;SDS011;75064;50.922;7.094;2024-01-30T00:03:36;4.13;;;1.80;;
3698;SDS011;75064;50.922;7.094;2024-01-30T00:06:03;4.18;;;2.00;;
3698;SDS011;75064;50.922;7.094;2024-01-30T00:08:28;4.22;;;1.92;;
3698;SDS011;75064;50.922;7.094;2024-01-30T00:10:54;2.67;;;2.00;;
3698;SDS011;75064;50.922;7.094;2024-01-30T00:13:19;3.58;;;2.00;;
3698;SDS011;75064;50.922;7.094;2024-01-30T00:15:45;2.72;;;2.00;;
3698;SDS011;75064;50.922;7.094;2024-01-30T00:18:10;3.70;;;1.80;;
3698;SDS011;75064;50.922;7.094;2024-01-30T00:20:36;2.65;;;1.88;;
3698;SDS011;75064;50.922;7.094;2024-01-30T00:23:01;2.38;;;1.90;;
3698;SDS011;75064;50.922;7.094;2024-01-30T00:25:26;3.47;;;1.90;;
3698;SDS011;75064;50.922;7.094;2024-01-30T00:27:52;2.53;;;1.90;;
3698;SDS011;75064;50.922;7.094;2024-01-30T00:30:17;3.17;;;2.00;;
3698;SDS011;75064;50.922;7.094;2024-01-30T00:32:43;3.20;;;1.88;;
3698;SDS011;75064;50.922;7.094;2024-01-30T00:35:08;2.63;;;2.00;;
3698;SDS011;75064;50.922;7.094;2024-01-30T00:37:35;2.15;;;1.73;;
3698;SDS011;75064;50.922;7.094;2024-01-30T00:40:01;2.70;;;1.85;;
3698;SDS011;75064;50.922;7.094;2024-01-30T00:42:26;2.78;;;1.83;;
3698;SDS011;75064;50.922;7.094;2024-01-30T00:44:51;3.33;;;1.80;;
3698;SDS011;75064;50.922;7.094;2024-01-30T00:47:17;3.30;;;1.90;;
3698;SDS011;75064;50.922;7.094;2024-01-30T00:49:42;2.72;;;1.60;;
3698;SDS011;75064;50.922;7.094;2024-01-30T00:52:08;2.75;;;1.83;;
3698;SDS011;75064;50.922;7.094;2024-01-30T00:54:33;3.55;;;1.98;;
3698;SDS011;75064;50.922;7.094;2024-01-30T00:56:58;2.75;;;1.85;;
3698;SDS011;75064;50.922;7.094;2024-01-30T00:59:24;3.10;;;2.00;;
3698;SDS011;75064;50.922;7.094;2024-01-30T01:01:50;3.15;;;1.73;;
3698;SDS011;75064;50.922;7.094;2024-01-30T01:04:15;2.42;;;1.77;;
3698;SDS011;75064;50.922;7.094;2024-01-30T01:06:41;2.60;;;1.90;;
3698;SDS011;75064;50.922;7.094;2024-01-30T01:09:09;3.03;;;2.10;;
3698;SDS011;75064;50.922;7.094;2024-01-30T01:11:36;3.08;;;1.80;;
3698;SDS011;75064;50.922;7.094;2024-01-30T01:14:02;3.08;;;1.92;;
3698;SDS011;75064;50.922;7.094;2024-01-30T01:16:28;2.90;;;1.80;;
3698;SDS011;75064;50.922;7.094;2024-01-30T01:18:53;2.10;;;1.70;;
3698;SDS011;75064;50.922;7.094;2024-01-30T01:21:19;3.63;;;2.00;;
3698;SDS011;75064;50.922;7.094;2024-01-30T01:23:44;2.60;;;1.92;;
3698;SDS011;75064;50.922;7.094;2024-01-30T01:26:09;2.63;;;1.70;;
3698;SDS011;75064;50.922;7.094;2024-01-30T01:28:35;3.63;;;1.85;;
3698;SDS011;75064;50.922;7.094;2024-01-30T01:31:00;1.88;;;1.67;;
3698;SDS011;75064;50.922;7.094;2024-01-30T01:35:57;3.08;;;1.90;;
3698;SDS011;75064;50.922;7.094;2024-01-30T01:38:22;2.40;;;1.73;;
3698;SDS011;75064;50.922;7.094;2024-01-30T01:40:47;2.35;;;2.00;;
3698;SDS011;75064;50.922;7.094;2024-01-30T01:43:13;2.17;;;1.75;;
3698;SDS011;75064;50.922;7.094;2024-01-30T01:45:38;3.33;;;2.00;;
3698;SDS011;75064;50.922;7.094;2024-01-30T01:48:03;3.13;;;1.80;;
3698;SDS011;75064;50.922;7.094;2024-01-30T01:50:29;3.92;;;1.80;;
3698;SDS011;75064;50.922;7.094;2024-01-30T01:52:54;2.20;;;1.60;;
3698;SDS011;75064;50.922;7.094;2024-01-30T01:55:21;2.47;;;1.77;;
3698;SDS011;75064;50.922;7.094;2024-01-30T01:57:47;2.47;;;1.70;;
3698;SDS011;75064;50.922;7.094;2024-01-30T02:00:12;2.00;;;1.70;;
3698;SDS011;75064;50.922;7.094;2024-01-30T02:02:38;3.17;;;1.98;;
3698;SDS011;75064;50.922;7.094;2024-01-30T02:05:04;2.85;;;1.98;;
3698;SDS011;75064;50.922;7.094;2024-01-30T02:07:29;2.50;;;1.75;;
3698;SDS011;75064;50.922;7.094;2024-01-30T02:09:55;4.35;;;1.98;;
3698;SDS011;75064;50.922;7.094;2024-01-30T02:12:20;3.03;;;1.77;;
3698;SDS011;75064;50.922;7.094;2024-01-30T02:14:46;2.85;;;1.80;;
3698;SDS011;75064;50.922;7.094;2024-01-30T02:17:12;2.40;;;1.70;;
3698;SDS011;75064;50.922;7.094;2024-01-30T02:19:38;2.15;;;1.80;;
3698;SDS011;75064;50.922;7.094;2024-01-30T02:22:04;2.92;;;1.80;;
3698;SDS011;75064;50.922;7.094;2024-01-30T02:24:30;2.30;;;1.77;;
3698;SDS011;75064;50.922;7.094;2024-01-30T02:26:55;2.92;;;1.73;;
3698;SDS011;75064;50.922;7.094;2024-01-30T02:29:20;3.25;;;1.70;;
3698;SDS011;75064;50.922;7.094;2024-01-30T02:31:46;3.05;;;1.90;;
3698;SDS011;75064;50.922;7.094;2024-01-30T02:34:12;2.65;;;1.80;;
3698;SDS011;75064;50.922;7.094;2024-01-30T02:36:37;2.97;;;1.65;;
3698;SDS011;75064;50.922;7.094;2024-01-30T02:39:03;2.55;;;1.75;;
3698;SDS011;75064;50.922;7.094;2024-01-30T02:41:28;2.80;;;1.92;;
3698;SDS011;75064;50.922;7.094;2024-01-30T02:43:53;2.03;;;1.50;;
3698;SDS011;75064;50.922;7.094;2024-01-30T02:46:19;3.03;;;1.70;;
3698;SDS011;75064;50.922;7.094;2024-01-30T02:48:44;2.58;;;1.90;;
3698;SDS011;75064;50.922;7.094;2024-01-30T02:51:10;2.20;;;1.65;;
3698;SDS011;75064;50.922;7.094;2024-01-30T02:53:35;3.13;;;1.67;;
3698;SDS011;75064;50.922;7.094;2024-01-30T02:56:01;2.30;;;1.80;;
3698;SDS011;75064;50.922;7.094;2024-01-30T02:58:27;1.90;;;1.65;;
3698;SDS011;75064;50.922;7.094;2024-01-30T03:00:53;2.35;;;1.70;;
3698;SDS011;75064;50.922;7.094;2024-01-30T03:03:18;2.63;;;1.77;;
3698;SDS011;75064;50.922;7.094;2024-01-30T03:05:43;2.63;;;2.08;;
3698;SDS011;75064;50.922;7.094;2024-01-30T03:08:09;3.15;;;2.05;;
3698;SDS011;75064;50.922;7.094;2024-01-30T03:10:34;3.50;;;1.80;;
3698;SDS011;75064;50.922;7.094;2024-01-30T03:12:59;2.30;;;1.48;;
3698;SDS011;75064;50.922;7.094;2024-01-30T03:15:25;2.63;;;1.80;;
3698;SDS011;75064;50.922;7.094;2024-01-30T03:17:50;2.13;;;1.70;;
3698;SDS011;75064;50.922;7.094;2024-01-30T03:20:16;2.50;;;1.70;;
3698;SDS011;75064;50.922;7.094;2024-01-30T03:22:41;2.50;;;1.60;;
3698;SDS011;75064;50.922;7.094;2024-01-30T03:25:06;2.92;;;1.52;;
3698;SDS011;75064;50.922;7.094;2024-01-30T03:27:32;2.60;;;1.95;;
3698;SDS011;75064;50.922;7.094;2024-01-30T03:29:57;3.33;;;1.70;;
3698;SDS011;75064;50.922;7.094;2024-01-30T03:32:23;2.60;;;1.80;;
3698;SDS011;75064;50.922;7.094;2024-01-30T03:34:48;2.53;;;1.75;;
3698;SDS011;75064;50.922;7.094;2024-01-30T03:37:13;3.00;;;1.65;;
3698;SDS011;75064;50.922;7.094;2024-01-30T03:39:39;2.47;;;1.67;;
3698;SDS011;75064;50.922;7.094;2024-01-30T03:42:04;2.22;;;1.70;;
3698;SDS011;75064;50.922;7.094;2024-01-30T03:44:30;2.58;;;1.63;;
3698;SDS011;75064;50.922;7.094;2024-01-30T03:46:55;2.15;;;1.65;;
3698;SDS011;75064;50.922;7.094;2024-01-30T03:49:20;3.00;;;1.90;;
3698;SDS011;75064;50.922;7.094;2024-01-30T03:51:46;2.42;;;1.90;;
3698;SDS011;75064;50.922;7.094;2024-01-30T03:54:12;2.78;;;1.88;;
3698;SDS011;75064;50.922;7.094;2024-01-30T03:56:38;2.50;;;1.70;;
3698;SDS011;75064;50.922;7.094;2024-01-30T03:59:03;2.72;;;1.80;;
3698;SDS011;75064;50.922;7.094;2024-01-30T04:01:28;2.10;;;1.55;;
3698;SDS011;75064;50.922;7.094;2024-01-30T04:03:54;2.72;;;2.00;;
3698;SDS011;75064;50.922;7.094;2024-01-30T04:06:19;2.28;;;1.65;;
3698;SDS011;75064;50.922;7.094;2024-01-30T04:08:45;2.10;;;1.50;;
3698;SDS011;75064;50.922;7.094;2024-01-30T04:11:10;2.20;;;1.67;;
3698;SDS011;75064;50.922;7.094;2024-01-30T04:13:35;2.88;;;1.60;;
3698;SDS011;75064;50.922;7.094;2024-01-30T04:16:01;2.97;;;1.70;;
3698;SDS011;75064;50.922;7.094;2024-01-30T04:18:27;2.90;;;1.77;;
3698;SDS011;75064;50.922;7.094;2024-01-30T04:20:53;2.58;;;1.70;;
3698;SDS011;75064;50.922;7.094;2024-01-30T04:23:18;2.72;;;1.70;;
3698;SDS011;75064;50.922;7.094;2024-01-30T04:25:44;2.28;;;1.50;;
3698;SDS011;75064;50.922;7.094;2024-01-30T04:28:09;3.08;;;1.50;;
3698;SDS011;75064;50.922;7.094;2024-01-30T04:30:37;3.63;;;1.77;;
3698;SDS011;75064;50.922;7.094;2024-01-30T04:33:02;2.88;;;1.77;;
3698;SDS011;75064;50.922;7.094;2024-01-30T04:35:28;2.38;;;1.58;;
3698;SDS011;75064;50.922;7.094;2024-01-30T04:37:53;2.40;;;1.60;;
3698;SDS011;75064;50.922;7.094;2024-01-30T04:40:20;3.65;;;1.70;;
3698;SDS011;75064;50.922;7.094;2024-01-30T04:42:46;2.28;;;1.60;;
3698;SDS011;75064;50.922;7.094;2024-01-30T04:45:11;2.55;;;1.60;;
3698;SDS011;75064;50.922;7.094;2024-01-30T04:47:37;3.33;;;1.58;;
3698;SDS011;75064;50.922;7.094;2024-01-30T04:50:02;2.58;;;1.60;;
3698;SDS011;75064;50.922;7.094;2024-01-30T04:52:29;3.55;;;1.77;;
3698;SDS011;75064;50.922;7.094;2024-01-30T04:54:55;2.00;;;1.50;;
3698;SDS011;75064;50.922;7.094;2024-01-30T04:57:20;2.33;;;1.58;;
3698;SDS011;75064;50.922;7.094;2024-01-30T04:59:46;1.92;;;1.50;;
3698;SDS011;75064;50.922;7.094;2024-01-30T05:02:11;3.33;;;1.50;;
3698;SDS011;75064;50.922;7.094;2024-01-30T05:04:36;2.42;;;1.70;;
3698;SDS011;75064;50.922;7.094;2024-01-30T05:07:02;2.10;;;1.70;;
3698;SDS011;75064;50.922;7.094;2024-01-30T05:09:27;2.40;;;1.63;;
3698;SDS011;75064;50.922;7.094;2024-01-30T05:11:53;2.25;;;1.60;;
3698;SDS011;75064;50.922;7.094;2024-01-30T05:14:18;2.55;;;1.65;;
3698;SDS011;75064;50.922;7.094;2024-01-30T05:16:44;2.92;;;1.48;;
3698;SDS011;75064;50.922;7.094;2024-01-30T05:19:12;2.83;;;1.70;;
3698;SDS011;75064;50.922;7.094;2024-01-30T05:21:39;4.07;;;1.65;;
3698;SDS011;75064;50.922;7.094;2024-01-30T05:24:04;2.47;;;1.60;;
3698;SDS011;75064;50.922;7.094;2024-01-30T05:26:30;2.92;;;1.63;;
3698;SDS011;75064;50.922;7.094;2024-01-30T05:28:55;2.20;;;1.70;;
3698;SDS011;75064;50.922;7.094;2024-01-30T05:31:20;3.15;;;1.63;;
3698;SDS011;75064;50.922;7.094;2024-01-30T05:33:46;2.83;;;1.55;;
3698;SDS011;75064;50.922;7.094;2024-01-30T05:36:12;2.15;;;1.60;;
3698;SDS011;75064;50.922;7.094;2024-01-30T05:38:38;2.80;;;1.80;;
3698;SDS011;75064;50.922;7.094;2024-01-30T05:41:03;2.88;;;1.60;;
3698;SDS011;75064;50.922;7.094;2024-01-30T05:43:29;3.13;;;1.80;;
3698;SDS011;75064;50.922;7.094;2024-01-30T05:45:54;4.18;;;1.77;;
3698;SDS011;75064;50.922;7.094;2024-01-30T05:48:20;3.08;;;1.73;;
3698;SDS011;75064;50.922;7.094;2024-01-30T05:50:45;3.65;;;1.70;;
3698;SDS011;75064;50.922;7.094;2024-01-30T05:53:11;4.30;;;1.75;;
3698;SDS011;75064;50.922;7.094;2024-01-30T05:55:36;5.13;;;1.80;;
3698;SDS011;75064;50.922;7.094;2024-01-30T05:58:02;14.70;;;13.80;;
3698;SDS011;75064;50.922;7.094;2024-01-30T06:00:28;15.30;;;14.50;;
3698;SDS011;75064;50.922;7.094;2024-01-30T06:02:54;16.10;;;15.20;;
3698;SDS011;75064;50.922;7.094;2024-01-30T06:05:19;17.45;;;16.45;;
3698;SDS011;75064;50.922;7.094;2024-01-30T06:07:45;17.45;;;16.50;;
3698;SDS011;75064;50.922;7.094;2024-01-30T06:10:10;17.70;;;16.80;;
3698;SDS011;75064;50.922;7.094;2024-01-30T06:12:35;17.48;;;16.58;;
3698;SDS011;75064;50.922;7.094;2024-01-30T06:15:01;17.05;;;16.17;;
3698;SDS011;75064;50.922;7.094;2024-01-30T06:17:27;17.20;;;16.10;;
3698;SDS011;75064;50.922;7.094;2024-01-30T06:19:53;16.48;;;15.55;;
3698;SDS011;75064;50.922;7.094;2024-01-30T06:22:18;16.65;;;15.80;;
3698;SDS011;75064;50.922;7.094;2024-01-30T06:24:43;17.90;;;16.80;;
3698;SDS011;75064;50.922;7.094;2024-01-30T06:27:15;18.08;;;17.20;;
3698;SDS011;75064;50.922;7.094;2024-01-30T06:29:41;18.27;;;17.13;;
3698;SDS011;75064;50.922;7.094;2024-01-30T06:32:07;17.73;;;16.92;;
3698;SDS011;75064;50.922;7.094;2024-01-30T06:34:33;17.30;;;16.40;;
3698;SDS011;75064;50.922;7.094;2024-01-30T06:36:58;17.75;;;16.80;;
3698;SDS011;75064;50.922;7.094;2024-01-30T06:39:24;18.30;;;17.13;;
3698;SDS011;75064;50.922;7.094;2024-01-30T06:41:50;17.48;;;16.42;;
3698;SDS011;75064;50.922;7.094;2024-01-30T06:44:15;17.83;;;17.13;;
3698;SDS011;75064;50.922;7.094;2024-01-30T06:46:41;17.65;;;16.95;;
3698;SDS011;75064;50.922;7.094;2024-01-30T06:49:07;18.13;;;17.15;;
3698;SDS011;75064;50.922;7.094;2024-01-30T06:51:32;17.77;;;16.67;;
3698;SDS011;75064;50.922;7.094;2024-01-30T06:53:58;17.33;;;16.35;;
3698;SDS011;75064;50.922;7.094;2024-01-30T06:56:23;18.17;;;17.48;;
3698;SDS011;75064;50.922;7.094;2024-01-30T06:58:49;18.05;;;17.15;;
3698;SDS011;75064;50.922;7.094;2024-01-30T07:01:15;18.20;;;17.08;;
3698;SDS011;75064;50.922;7.094;2024-01-30T07:03:41;17.48;;;16.45;;
3698;SDS011;75064;50.922;7.094;2024-01-30T07:06:07;18.23;;;17.23;;
3698;SDS011;75064;50.922;7.094;2024-01-30T07:08:32;18.73;;;17.65;;
3698;SDS011;75064;50.922;7.094;2024-01-30T07:10:58;7.47;;;2.00;;
3698;SDS011;75064;50.922;7.094;2024-01-30T07:13:23;7.20;;;2.20;;
3698;SDS011;75064;50.922;7.094;2024-01-30T07:15:49;6.22;;;1.90;;
3698;SDS011;75064;50.922;7.094;2024-01-30T07:18:15;5.70;;;2.42;;
3698;SDS011;75064;50.922;7.094;2024-01-30T07:20:40;6.65;;;3.08;;
3698;SDS011;75064;50.922;7.094;2024-01-30T07:23:14;5.65;;;2.90;;
3698;SDS011;75064;50.922;7.094;2024-01-30T07:25:42;7.13;;;3.20;;
3698;SDS011;75064;50.922;7.094;2024-01-30T07:28:08;6.75;;;3.00;;
3698;SDS011;75064;50.922;7.094;2024-01-30T07:30:42;6.20;;;3.10;;
3698;SDS011;75064;50.922;7.094;2024-01-30T07:33:07;5.72;;;2.92;;
3698;SDS011;75064;50.922;7.094;2024-01-30T07:35:33;5.70;;;2.95;;
3698;SDS011;75064;50.922;7.094;2024-01-30T07:37:59;6.57;;;2.80;;
3698;SDS011;75064;50.922;7.094;2024-01-30T07:40:25;8.00;;;3.10;;
3698;SDS011;75064;50.922;7.094;2024-01-30T07:42:50;5.03;;;2.72;;
3698;SDS011;75064;50.922;7.094;2024-01-30T07:45:16;6.03;;;2.50;;
3698;SDS011;75064;50.922;7.094;2024-01-30T07:47:41;6.18;;;2.72;;
3698;SDS011;75064;50.922;7.094;2024-01-30T07:50:10;7.15;;;2.63;;
3698;SDS011;75064;50.922;7.094;2024-01-30T07:52:35;4.07;;;2.42;;
3698;SDS011;75064;50.922;7.094;2024-01-30T07:55:02;5.63;;;2.78;;
3698;SDS011;75064;50.922;7.094;2024-01-30T07:57:29;4.55;;;2.55;;
3698;SDS011;75064;50.922;7.094;2024-01-30T07:59:54;3.83;;;2.60;;
3698;SDS011;75064;50.922;7.094;2024-01-30T08:02:19;4.40;;;2.70;;
3698;SDS011;75064;50.922;7.094;2024-01-30T08:04:45;4.30;;;2.63;;
3698;SDS011;75064;50.922;7.094;2024-01-30T08:07:13;3.75;;;2.20;;
3698;SDS011;75064;50.922;7.094;2024-01-30T08:09:39;5.43;;;2.50;;
3698;SDS011;75064;50.922;7.094;2024-01-30T08:12:04;4.75;;;2.72;;
3698;SDS011;75064;50.922;7.094;2024-01-30T08:14:30;4.65;;;2.50;;
3698;SDS011;75064;50.922;7.094;2024-01-30T08:16:55;6.68;;;2.35;;
3698;SDS011;75064;50.922;7.094;2024-01-30T08:19:21;4.78;;;2.30;;
3698;SDS011;75064;50.922;7.094;2024-01-30T08:21:46;5.72;;;2.40;;
3698;SDS011;75064;50.922;7.094;2024-01-30T08:24:11;6.15;;;2.70;;
3698;SDS011;75064;50.922;7.094;2024-01-30T08:26:37;3.88;;;2.47;;
3698;SDS011;75064;50.922;7.094;2024-01-30T08:29:03;6.00;;;2.60;;
3698;SDS011;75064;50.922;7.094;2024-01-30T08:31:29;5.03;;;2.60;;
3698;SDS011;75064;50.922;7.094;2024-01-30T08:33:54;6.13;;;2.70;;
3698;SDS011;75064;50.922;7.094;2024-01-30T08:36:19;4.85;;;2.20;;
3698;SDS011;75064;50.922;7.094;2024-01-30T08:38:45;3.55;;;2.28;;
3698;SDS011;75064;50.922;7.094;2024-01-30T08:41:10;5.05;;;2.38;;
3698;SDS011;75064;50.922;7.094;2024-01-30T08:43:36;3.47;;;2.35;;
3698;SDS011;75064;50.922;7.094;2024-01-30T08:46:01;4.20;;;2.22;;
3698;SDS011;75064;50.922;7.094;2024-01-30T08:48:27;3.88;;;2.13;;
3698;SDS011;75064;50.922;7.094;2024-01-30T08:50:52;4.45;;;2.47;;
3698;SDS011;75064;50.922;7.094;2024-01-30T08:53:18;4.30;;;2.22;;
3698;SDS011;75064;50.922;7.094;2024-01-30T08:55:44;4.88;;;2.38;;
3698;SDS011;75064;50.922;7.094;2024-01-30T08:58:09;4.05;;;2.30;;
3698;SDS011;75064;50.922;7.094;2024-01-30T09:00:35;5.32;;;2.35;;
3698;SDS011;75064;50.922;7.094;2024-01-30T09:03:00;3.22;;;2.40;;
3698;SDS011;75064;50.922;7.094;2024-01-30T09:05:26;4.00;;;2.30;;
3698;SDS011;75064;50.922;7.094;2024-01-30T09:07:51;3.85;;;2.40;;
3698;SDS011;75064;50.922;7.094;2024-01-30T09:10:17;3.83;;;2.20;;
3698;SDS011;75064;50.922;7.094;2024-01-30T09:12:42;3.90;;;2.20;;
3698;SDS011;75064;50.922;7.094;2024-01-30T09:15:07;5.60;;;2.60;;
3698;SDS011;75064;50.922;7.094;2024-01-30T09:17:33;3.58;;;2.20;;
3698;SDS011;75064;50.922;7.094;2024-01-30T09:19:59;3.70;;;2.00;;
3698;SDS011;75064;50.922;7.094;2024-01-30T09:22:24;4.28;;;1.98;;
3698;SDS011;75064;50.922;7.094;2024-01-30T09:24:50;3.50;;;2.10;;
3698;SDS011;75064;50.922;7.094;2024-01-30T09:27:15;3.85;;;2.10;;
3698;SDS011;75064;50.922;7.094;2024-01-30T09:29:40;4.43;;;2.10;;
3698;SDS011;75064;50.922;7.094;2024-01-30T09:32:06;3.10;;;2.05;;
3698;SDS011;75064;50.922;7.094;2024-01-30T09:34:32;4.82;;;2.20;;
3698;SDS011;75064;50.922;7.094;2024-01-30T09:36:58;3.30;;;1.98;;
3698;SDS011;75064;50.922;7.094;2024-01-30T09:39:24;4.22;;;2.10;;
3698;SDS011;75064;50.922;7.094;2024-01-30T09:41:53;3.20;;;2.15;;
3698;SDS011;75064;50.922;7.094;2024-01-30T09:44:22;3.85;;;2.10;;
3698;SDS011;75064;50.922;7.094;2024-01-30T09:46:49;4.28;;;2.10;;
3698;SDS011;75064;50.922;7.094;2024-01-30T09:49:16;3.13;;;2.10;;
3698;SDS011;75064;50.922;7.094;2024-01-30T09:51:43;4.07;;;2.00;;
3698;SDS011;75064;50.922;7.094;2024-01-30T09:54:10;4.57;;;2.40;;
3698;SDS011;75064;50.922;7.094;2024-01-30T09:56:35;5.07;;;2.28;;
3698;SDS011;75064;50.922;7.094;2024-01-30T09:59:01;3.65;;;2.30;;
3698;SDS011;75064;50.922;7.094;2024-01-30T10:01:26;3.42;;;2.05;;
3698;SDS011;75064;50.922;7.094;2024-01-30T10:03:52;4.43;;;1.98;;
3698;SDS011;75064;50.922;7.094;2024-01-30T10:06:19;3.30;;;2.00;;
3698;SDS011;75064;50.922;7.094;2024-01-30T10:08:46;4.30;;;1.90;;
3698;SDS011;75064;50.922;7.094;2024-01-30T10:11:11;3.58;;;2.15;;
3698;SDS011;75064;50.922;7.094;2024-01-30T10:13:38;3.15;;;2.00;;
3698;SDS011;75064;50.922;7.094;2024-01-30T10:16:04;2.92;;;1.80;;
3698;SDS011;75064;50.922;7.094;2024-01-30T10:18:31;2.78;;;1.77;;
3698;SDS011;75064;50.922;7.094;2024-01-30T10:20:57;3.28;;;2.22;;
3698;SDS011;75064;50.922;7.094;2024-01-30T10:23:23;3.22;;;1.98;;
3698;SDS011;75064;50.922;7.094;2024-01-30T10:25:49;2.22;;;1.75;;
3698;SDS011;75064;50.922;7.094;2024-01-30T10:30:43;3.60;;;2.05;;
3698;SDS011;75064;50.922;7.094;2024-01-30T10:33:09;2.95;;;2.00;;
3698;SDS011;75064;50.922;7.094;2024-01-30T10:35:34;4.15;;;2.00;;
3698;SDS011;75064;50.922;7.094;2024-01-30T10:38:00;3.78;;;2.03;;
3698;SDS011;75064;50.922;7.094;2024-01-30T10:40:28;4.13;;;2.13;;
3698;SDS011;75064;50.922;7.094;2024-01-30T10:42:54;4.00;;;1.95;;
3698;SDS011;75064;50.922;7.094;2024-01-30T10:45:20;3.67;;;2.00;;
3698;SDS011;75064;50.922;7.094;2024-01-30T10:47:50;4.30;;;1.90;;
3698;SDS011;75064;50.922;7.094;2024-01-30T10:50:18;3.40;;;2.00;;
3698;SDS011;75064;50.922;7.094;2024-01-30T10:52:44;3.67;;;1.90;;
3698;SDS011;75064;50.922;7.094;2024-01-30T10:55:10;4.55;;;2.25;;
3698;SDS011;75064;50.922;7.094;2024-01-30T10:57:35;3.03;;;2.00;;
3698;SDS011;75064;50.922;7.094;2024-01-30T11:00:08;3.85;;;1.95;;
3698;SDS011;75064;50.922;7.094;2024-01-30T11:02:36;3.28;;;1.83;;
3698;SDS011;75064;50.922;7.094;2024-01-30T11:05:04;3.40;;;2.00;;
3698;SDS011;75064;50.922;7.094;2024-01-30T11:07:29;3.25;;;1.60;;
3698;SDS011;75064;50.922;7.094;2024-01-30T11:12:23;3.22;;;1.83;;
3698;SDS011;75064;50.922;7.094;2024-01-30T11:14:50;4.00;;;1.90;;
3698;SDS011;75064;50.922;7.094;2024-01-30T11:20:31;3.05;;;1.80;;
3698;SDS011;75064;50.922;7.094;2024-01-30T11:22:57;3.83;;;1.73;;
3698;SDS011;75064;50.922;7.094;2024-01-30T11:25:23;3.13;;;1.75;;
3698;SDS011;75064;50.922;7.094;2024-01-30T11:27:50;2.95;;;1.90;;
3698;SDS011;75064;50.922;7.094;2024-01-30T11:33:05;3.28;;;1.83;;
3698;SDS011;75064;50.922;7.094;2024-01-30T11:35:32;2.72;;;1.60;;
3698;SDS011;75064;50.922;7.094;2024-01-30T11:37:59;2.80;;;1.73;;
3698;SDS011;75064;50.922;7.094;2024-01-30T11:40:26;2.60;;;1.70;;
3698;SDS011;75064;50.922;7.094;2024-01-30T11:42:53;3.10;;;1.80;;
3698;SDS011;75064;50.922;7.094;2024-01-30T11:45:18;3.13;;;1.60;;
3698;SDS011;75064;50.922;7.094;2024-01-30T11:47:43;2.40;;;1.73;;
3698;SDS011;75064;50.922;7.094;2024-01-30T11:50:09;3.22;;;1.77;;
3698;SDS011;75064;50.922;7.094;2024-01-30T11:52:35;2.90;;;1.83;;
3698;SDS011;75064;50.922;7.094;2024-01-30T11:55:01;2.80;;;1.70;;
3698;SDS011;75064;50.922;7.094;2024-01-30T11:57:27;2.60;;;1.67;;
3698;SDS011;75064;50.922;7.094;2024-01-30T11:59:53;3.67;;;1.63;;
3698;SDS011;75064;50.922;7.094;2024-01-30T12:02:18;4.60;;;1.85;;
3698;SDS011;75064;50.922;7.094;2024-01-30T12:04:44;3.08;;;1.77;;
3698;SDS011;75064;50.922;7.094;2024-01-30T12:07:09;5.15;;;1.60;;
3698;SDS011;75064;50.922;7.094;2024-01-30T12:09:35;2.47;;;1.70;;
3698;SDS011;75064;50.922;7.094;2024-01-30T12:12:00;4.22;;;1.80;;
3698;SDS011;75064;50.922;7.094;2024-01-30T12:14:26;3.40;;;1.70;;
3698;SDS011;75064;50.922;7.094;2024-01-30T12:16:51;3.50;;;1.90;;
3698;SDS011;75064;50.922;7.094;2024-01-30T12:19:26;2.58;;;1.50;;
3698;SDS011;75064;50.922;7.094;2024-01-30T12:21:55;2.50;;;1.60;;
3698;SDS011;75064;50.922;7.094;2024-01-30T12:24:22;3.60;;;1.90;;
3698;SDS011;75064;50.922;7.094;2024-01-30T12:26:47;3.67;;;1.70;;
3698;SDS011;75064;50.922;7.094;2024-01-30T12:29:14;2.42;;;1.63;;
3698;SDS011;75064;50.922;7.094;2024-01-30T12:31:41;2.65;;;1.52;;
3698;SDS011;75064;50.922;7.094;2024-01-30T12:34:07;3.40;;;1.60;;
3698;SDS011;75064;50.922;7.094;2024-01-30T12:36:32;2.78;;;1.52;;
3698;SDS011;75064;50.922;7.094;2024-01-30T12:38:59;3.58;;;2.00;;
3698;SDS011;75064;50.922;7.094;2024-01-30T12:41:25;1.92;;;1.50;;
3698;SDS011;75064;50.922;7.094;2024-01-30T12:43:54;3.08;;;1.70;;
3698;SDS011;75064;50.922;7.094;2024-01-30T12:46:20;1.83;;;1.50;;
3698;SDS011;75064;50.922;7.094;2024-01-30T12:48:45;2.85;;;1.80;;
3698;SDS011;75064;50.922;7.094;2024-01-30T12:51:11;2.53;;;1.63;;
3698;SDS011;75064;50.922;7.094;2024-01-30T12:53:36;2.60;;;1.50;;
3698;SDS011;75064;50.922;7.094;2024-01-30T12:56:02;4.07;;;1.92;;
3698;SDS011;75064;50.922;7.094;2024-01-30T12:58:27;3.92;;;1.90;;
3698;SDS011;75064;50.922;7.094;2024-01-30T13:00:52;3.40;;;1.90;;
3698;SDS011;75064;50.922;7.094;2024-01-30T13:03:18;3.38;;;1.70;;
3698;SDS011;75064;50.922;7.094;2024-01-30T13:05:44;3.00;;;1.95;;
3698;SDS011;75064;50.922;7.094;2024-01-30T13:08:09;2.72;;;1.85;;
3698;SDS011;75064;50.922;7.094;2024-01-30T13:10:35;2.97;;;1.73;;
3698;SDS011;75064;50.922;7.094;2024-01-30T13:13:00;4.07;;;1.88;;
3698;SDS011;75064;50.922;7.094;2024-01-30T13:15:25;3.25;;;1.60;;
3698;SDS011;75064;50.922;7.094;2024-01-30T13:17:51;3.55;;;1.88;;
3698;SDS011;75064;50.922;7.094;2024-01-30T13:20:19;2.95;;;1.73;;
3698;SDS011;75064;50.922;7.094;2024-01-30T13:22:47;3.13;;;1.90;;
3698;SDS011;75064;50.922;7.094;2024-01-30T13:25:13;4.45;;;1.92;;
3698;SDS011;75064;50.922;7.094;2024-01-30T13:27:39;2.50;;;1.75;;
3698;SDS011;75064;50.922;7.094;2024-01-30T13:30:04;2.70;;;1.65;;
3698;SDS011;75064;50.922;7.094;2024-01-30T13:32:31;6.93;;;2.38;;
3698;SDS011;75064;50.922;7.094;2024-01-30T13:34:56;9.52;;;3.88;;
3698;SDS011;75064;50.922;7.094;2024-01-30T13:37:22;5.60;;;3.30;;
3698;SDS011;75064;50.922;7.094;2024-01-30T13:39:47;5.15;;;2.65;;
3698;SDS011;75064;50.922;7.094;2024-01-30T13:42:13;5.68;;;3.20;;
3698;SDS011;75064;50.922;7.094;2024-01-30T13:44:38;4.72;;;2.67;;
3698;SDS011;75064;50.922;7.094;2024-01-30T13:47:04;7.55;;;2.97;;
3698;SDS011;75064;50.922;7.094;2024-01-30T13:49:29;4.88;;;2.80;;
3698;SDS011;75064;50.922;7.094;2024-01-30T13:51:54;5.80;;;2.47;;
3698;SDS011;75064;50.922;7.094;2024-01-30T13:54:20;4.93;;;2.50;;
3698;SDS011;75064;50.922;7.094;2024-01-30T13:56:45;6.50;;;2.85;;
3698;SDS011;75064;50.922;7.094;2024-01-30T13:59:11;5.55;;;2.70;;
3698;SDS011;75064;50.922;7.094;2024-01-30T14:01:36;4.50;;;2.35;;
3698;SDS011;75064;50.922;7.094;2024-01-30T14:04:01;6.38;;;2.53;;
3698;SDS011;75064;50.922;7.094;2024-01-30T14:06:27;4.70;;;2.60;;
3698;SDS011;75064;50.922;7.094;2024-01-30T14:08:52;4.82;;;2.38;;
3698;SDS011;75064;50.922;7.094;2024-01-30T14:11:17;5.10;;;2.60;;
3698;SDS011;75064;50.922;7.094;2024-01-30T14:13:43;5.93;;;2.88;;
3698;SDS011;75064;50.922;7.094;2024-01-30T14:16:08;4.50;;;2.40;;
3698;SDS011;75064;50.922;7.094;2024-01-30T14:18:34;5.35;;;2.38;;
3698;SDS011;75064;50.922;7.094;2024-01-30T14:20:59;5.43;;;2.38;;
3698;SDS011;75064;50.922;7.094;2024-01-30T14:23:25;3.47;;;2.20;;
3698;SDS011;75064;50.922;7.094;2024-01-30T14:25:50;4.10;;;2.42;;
3698;SDS011;75064;50.922;7.094;2024-01-30T14:28:16;5.13;;;2.42;;
3698;SDS011;75064;50.922;7.094;2024-01-30T14:30:42;4.60;;;2.22;;
3698;SDS011;75064;50.922;7.094;2024-01-30T14:33:07;4.47;;;2.30;;
3698;SDS011;75064;50.922;7.094;2024-01-30T14:35:33;3.35;;;2.05;;
3698;SDS011;75064;50.922;7.094;2024-01-30T14:37:59;4.50;;;2.30;;
3698;SDS011;75064;50.922;7.094;2024-01-30T14:40:24;3.63;;;2.40;;
3698;SDS011;75064;50.922;7.094;2024-01-30T14:42:49;3.60;;;2.20;;
3698;SDS011;75064;50.922;7.094;2024-01-30T14:45:15;4.68;;;2.25;;
3698;SDS011;75064;50.922;7.094;2024-01-30T14:47:41;3.67;;;2.40;;
3698;SDS011;75064;50.922;7.094;2024-01-30T14:50:07;4.88;;;2.42;;
3698;SDS011;75064;50.922;7.094;2024-01-30T14:52:33;3.53;;;2.30;;
3698;SDS011;75064;50.922;7.094;2024-01-30T14:54:58;7.63;;;2.70;;
3698;SDS011;75064;50.922;7.094;2024-01-30T14:57:24;7.57;;;2.83;;
3698;SDS011;75064;50.922;7.094;2024-01-30T14:59:50;7.32;;;3.08;;
3698;SDS011;75064;50.922;7.094;2024-01-30T15:02:15;6.68;;;2.90;;
3698;SDS011;75064;50.922;7.094;2024-01-30T15:04:40;7.65;;;3.10;;